Time;durP1;ratioP1;P1;durP2;ratioP2;P2;SDS_P1;SDS_P2;PMS_P1;PMS_P2;Temp;Humidity;BMP_temperature;BMP_pressure;BME280_temperature;BME280_humidity;BME280_pressure;Samples;Min_cycle;Max_cycle;Signal;HPM_P1;HPM_P2
2023/09/10 00:00:06;;;;;;;17.80;11.33;;;18.60;99.90;;;;;;4974411;28;20190;-82
2023/09/10 00:02:34;;;;;;;19.03;12.10;;;18.50;99.90;;;;;;4974197;28;20213;-82
2023/09/10 00:05:02;;;;;;;19.63;12.33;;;18.50;99.90;;;;;;4972752;28;20201;-81
2023/09/10 00:07:30;;;;;;;21.87;13.47;;;18.40;99.90;;;;;;4973837;28;20287;-78
2023/09/10 00:09:58;;;;;;;18.30;12.53;;;18.40;99.90;;;;;;4971137;28;20204;-77
2023/09/10 00:12:26;;;;;;;22.57;13.30;;;18.30;99.90;;;;;;4971677;28;20237;-77
2023/09/10 00:14:54;;;;;;;19.93;13.27;;;18.30;99.90;;;;;;4971990;28;20301;-75
2023/09/10 00:17:22;;;;;;;24.43;13.93;;;18.20;99.90;;;;;;4973009;28;20736;-76
2023/09/10 00:19:50;;;;;;;26.47;13.83;;;18.20;99.90;;;;;;4972094;28;20229;-81
2023/09/10 00:22:19;;;;;;;23.13;13.77;;;18.20;99.90;;;;;;4972287;28;20234;-81
2023/09/10 00:24:47;;;;;;;21.23;13.03;;;18.20;99.90;;;;;;4988559;28;20198;-76
2023/09/10 00:27:15;;;;;;;19.90;13.60;;;18.10;99.90;;;;;;4972755;28;20265;-75
2023/09/10 00:29:43;;;;;;;21.80;13.67;;;18.20;99.90;;;;;;4973479;28;20597;-81
2023/09/10 00:32:11;;;;;;;20.17;13.83;;;18.00;99.90;;;;;;4973385;28;20688;-82
2023/09/10 00:34:39;;;;;;;23.47;13.77;;;18.00;99.90;;;;;;4974905;28;20193;-81
2023/09/10 00:37:08;;;;;;;28.43;15.07;;;17.90;99.90;;;;;;4974337;28;20300;-82
2023/09/10 00:39:36;;;;;;;23.20;14.30;;;17.90;99.90;;;;;;4973970;28;20201;-81
2023/09/10 00:42:04;;;;;;;23.83;15.10;;;17.90;99.90;;;;;;4974494;28;20621;-81
2023/09/10 00:44:32;;;;;;;24.47;14.37;;;17.90;99.90;;;;;;4974081;28;20228;-81
2023/09/10 00:47:00;;;;;;;34.93;16.60;;;17.80;99.90;;;;;;4956291;28;20197;-82
2023/09/10 00:49:29;;;;;;;23.53;14.60;;;17.80;99.90;;;;;;4973528;28;20193;-81
2023/09/10 00:52:00;;;;;;;28.40;15.23;;;17.80;99.90;;;;;;4971674;28;20237;-81
2023/09/10 00:54:31;;;;;;;20.83;14.17;;;17.70;99.90;;;;;;4971204;28;20591;-81
2023/09/10 00:57:03;;;;;;;19.83;13.87;;;17.80;99.90;;;;;;4971791;28;20229;-81
2023/09/10 00:59:31;;;;;;;23.40;14.40;;;17.70;99.90;;;;;;4989328;28;20193;-81
2023/09/10 01:01:59;;;;;;;25.47;14.60;;;17.70;99.90;;;;;;4971371;28;20204;-83
2023/09/10 01:04:28;;;;;;;25.80;15.70;;;17.70;99.90;;;;;;4973391;28;20700;-81
2023/09/10 01:06:56;;;;;;;23.47;14.23;;;17.60;99.90;;;;;;4972095;28;20249;-82
2023/09/10 01:09:24;;;;;;;22.33;14.77;;;17.60;99.90;;;;;;4970932;28;20205;-75
2023/09/10 01:12:09;;;;;;;24.13;14.40;;;17.60;99.90;;;;;;4986660;28;20288;-80
2023/09/10 01:15:06;;;;;;;25.73;15.37;;;17.50;99.90;;;;;;4973155;28;20276;-83
2023/09/10 01:17:50;;;;;;;28.13;16.23;;;17.50;99.90;;;;;;4971854;28;20204;-80
2023/09/10 01:20:38;;;;;;;35.57;16.73;;;17.50;99.90;;;;;;4973900;28;20193;-76
2023/09/10 01:23:15;;;;;;;26.20;14.90;;;17.40;99.90;;;;;;4971060;28;20625;-75
2023/09/10 01:25:44;;;;;;;24.57;15.00;;;17.40;99.90;;;;;;4975138;28;20188;-76
2023/09/10 01:28:12;;;;;;;20.93;14.40;;;17.40;99.90;;;;;;4974870;28;20365;-75
2023/09/10 01:30:40;;;;;;;24.27;15.80;;;17.40;99.90;;;;;;4976084;28;20216;-75
2023/09/10 01:33:36;;;;;;;23.97;15.30;;;17.40;99.90;;;;;;4975186;28;20299;-81
2023/09/10 01:36:19;;;;;;;23.00;15.13;;;17.30;99.90;;;;;;4976661;28;20669;-81
2023/09/10 01:39:17;;;;;;;21.93;14.77;;;17.30;99.90;;;;;;4976141;28;20193;-81
2023/09/10 01:41:49;;;;;;;24.23;15.00;;;17.20;99.90;;;;;;4976226;28;20252;-81
2023/09/10 01:44:18;;;;;;;28.53;16.13;;;17.20;99.90;;;;;;4958767;28;20252;-79
2023/09/10 01:46:46;;;;;;;25.00;16.30;;;17.20;99.90;;;;;;4976025;28;20587;-81
2023/09/10 01:49:15;;;;;;;29.60;16.93;;;17.20;99.90;;;;;;4974700;28;20724;-80
2023/09/10 01:51:43;;;;;;;26.77;16.67;;;17.20;99.90;;;;;;4975921;28;20209;-80
2023/09/10 01:54:11;;;;;;;25.90;16.87;;;17.10;99.90;;;;;;4974803;28;20203;-80
2023/09/10 01:56:39;;;;;;;24.43;16.33;;;17.20;99.90;;;;;;4975939;28;20196;-80
2023/09/10 01:59:07;;;;;;;28.87;17.33;;;17.10;99.90;;;;;;4975517;28;20200;-81
2023/09/10 02:01:36;;;;;;;25.80;16.90;;;17.10;99.90;;;;;;4975805;28;20213;-80
2023/09/10 02:04:04;;;;;;;26.50;17.30;;;17.10;99.90;;;;;;4974582;28;20205;-81
2023/09/10 02:06:32;;;;;;;27.53;17.67;;;17.00;99.90;;;;;;4975729;28;20251;-76
2023/09/10 02:09:00;;;;;;;28.73;18.37;;;17.00;99.90;;;;;;4975101;28;20190;-76
2023/09/10 02:11:28;;;;;;;25.60;16.73;;;17.00;99.90;;;;;;4975409;28;20198;-76
2023/09/10 02:13:55;;;;;;;30.40;16.90;;;17.00;99.90;;;;;;4973508;28;20281;-76
2023/09/10 02:16:24;;;;;;;24.97;17.23;;;17.00;99.90;;;;;;4975093;28;20244;-81
2023/09/10 02:18:52;;;;;;;29.33;17.37;;;17.00;99.90;;;;;;4974174;28;20645;-80
2023/09/10 02:21:20;;;;;;;28.63;17.73;;;17.00;99.90;;;;;;4973255;28;20578;-80
2023/09/10 02:23:48;;;;;;;28.77;17.57;;;16.90;99.90;;;;;;4973692;28;20229;-75
2023/09/10 02:26:15;;;;;;;28.10;17.50;;;16.90;99.90;;;;;;4975027;28;20657;-75
2023/09/10 02:28:44;;;;;;;26.53;17.53;;;17.00;99.90;;;;;;4975526;28;20258;-81
2023/09/10 02:31:12;;;;;;;27.67;17.20;;;17.00;99.90;;;;;;4957702;28;20209;-80
2023/09/10 02:33:40;;;;;;;31.50;18.30;;;17.00;99.90;;;;;;4975150;28;20252;-81
2023/09/10 02:36:08;;;;;;;30.57;18.43;;;17.00;99.90;;;;;;4988870;28;20292;-80
2023/09/10 02:38:36;;;;;;;35.10;18.87;;;16.90;99.90;;;;;;4973847;28;20283;-80
2023/09/10 02:41:05;;;;;;;27.30;18.53;;;17.00;99.90;;;;;;4975201;28;20328;-75
2023/09/10 02:43:33;;;;;;;29.80;17.50;;;17.00;99.90;;;;;;4973609;28;20197;-81
2023/09/10 02:46:01;;;;;;;32.97;19.10;;;17.00;99.90;;;;;;4973493;28;20193;-81
2023/09/10 02:48:29;;;;;;;27.43;17.50;;;16.90;99.90;;;;;;4989489;28;20216;-80
2023/09/10 02:50:57;;;;;;;26.73;17.93;;;17.00;99.90;;;;;;4973705;28;20781;-81
2023/09/10 02:53:25;;;;;;;25.93;17.63;;;17.00;99.90;;;;;;4974154;28;20245;-79
2023/09/10 02:56:02;;;;;;;25.90;17.43;;;16.90;99.90;;;;;;4989882;28;20293;-82
2023/09/10 02:58:30;;;;;;;28.60;18.03;;;17.00;99.90;;;;;;4957251;28;20201;-81
2023/09/10 03:01:05;;;;;;;26.47;16.90;;;17.00;99.90;;;;;;4973120;28;20665;-81
2023/09/10 03:03:33;;;;;;;26.50;17.40;;;17.00;99.90;;;;;;4973070;28;20599;-81
2023/09/10 03:06:01;;;;;;;28.07;17.40;;;16.90;99.90;;;;;;4989230;28;20209;-81
2023/09/10 03:08:35;;;;;;;27.87;17.60;;;16.90;99.90;;;;;;4974747;28;20214;-82
2023/09/10 03:11:04;;;;;;;27.77;17.90;;;16.90;99.90;;;;;;4973607;28;20297;-81
2023/09/10 03:13:32;;;;;;;31.10;18.17;;;16.90;99.90;;;;;;4972848;28;20311;-79
2023/09/10 03:16:01;;;;;;;27.50;17.43;;;16.90;99.90;;;;;;4972977;28;20201;-80
2023/09/10 03:18:29;;;;;;;29.23;17.57;;;16.90;99.90;;;;;;4974397;28;20248;-81
2023/09/10 03:20:57;;;;;;;27.27;17.00;;;16.90;99.90;;;;;;4973977;28;20213;-81
2023/09/10 03:23:24;;;;;;;30.60;17.60;;;16.90;99.90;;;;;;4974404;28;20194;-81
2023/09/10 03:25:52;;;;;;;27.17;16.73;;;16.90;99.90;;;;;;4974248;28;20193;-80
2023/09/10 03:28:20;;;;;;;30.97;17.90;;;16.80;99.90;;;;;;4973165;28;20248;-81
2023/09/10 03:30:49;;;;;;;28.57;17.23;;;16.80;99.90;;;;;;4972770;28;20191;-81
2023/09/10 03:33:17;;;;;;;28.80;17.30;;;16.70;99.90;;;;;;4973627;28;20245;-75
2023/09/10 03:35:45;;;;;;;25.67;16.93;;;16.70;99.90;;;;;;4972467;28;20225;-76
2023/09/10 03:38:13;;;;;;;28.83;18.33;;;16.60;99.90;;;;;;4972712;28;20220;-76
2023/09/10 03:40:42;;;;;;;29.67;17.43;;;16.60;99.90;;;;;;4972495;28;20534;-76
2023/09/10 03:43:10;;;;;;;30.63;18.23;;;16.60;99.90;;;;;;4971642;28;20208;-75
2023/09/10 03:45:38;;;;;;;26.47;17.60;;;16.60;99.90;;;;;;4988884;28;20277;-80
2023/09/10 03:48:07;;;;;;;31.40;18.53;;;16.50;99.90;;;;;;4973654;28;20202;-81
2023/09/10 03:50:35;;;;;;;28.60;18.40;;;16.60;99.90;;;;;;4989155;28;20209;-81
2023/09/10 03:53:03;;;;;;;30.80;17.93;;;16.60;99.90;;;;;;4987771;28;20213;-82
2023/09/10 03:55:31;;;;;;;26.83;17.27;;;16.50;99.90;;;;;;4974308;28;20656;-80
2023/09/10 03:57:59;;;;;;;33.13;17.90;;;16.40;99.90;;;;;;4971677;28;20197;-80
2023/09/10 04:00:28;;;;;;;30.87;17.97;;;16.40;99.90;;;;;;4974126;28;20272;-76
2023/09/10 04:02:56;;;;;;;27.43;17.27;;;16.30;99.90;;;;;;4974169;28;20204;-80
2023/09/10 04:05:24;;;;;;;27.50;17.67;;;16.20;99.90;;;;;;4990133;28;20214;-81
2023/09/10 04:07:52;;;;;;;27.80;17.90;;;16.40;99.90;;;;;;4972813;28;20706;-79
2023/09/10 04:10:20;;;;;;;26.70;17.33;;;16.30;99.90;;;;;;4973742;28;20194;-80
2023/09/10 04:12:50;;;;;;;26.10;17.17;;;16.30;99.90;;;;;;4973148;28;20288;-80
2023/09/10 04:15:19;;;;;;;29.33;18.47;;;16.30;99.90;;;;;;4973164;28;20193;-81
2023/09/10 04:17:47;;;;;;;26.47;17.53;;;16.20;99.90;;;;;;4971963;28;20197;-79
2023/09/10 04:20:15;;;;;;;27.40;17.77;;;16.20;99.90;;;;;;4972676;28;20228;-80
2023/09/10 04:22:42;;;;;;;29.47;17.93;;;16.20;99.90;;;;;;4957817;28;20206;-75
2023/09/10 04:25:11;;;;;;;30.67;19.23;;;16.20;99.90;;;;;;4991348;28;20589;-80
2023/09/10 04:27:39;;;;;;;24.93;16.87;;;16.20;99.90;;;;;;4976444;28;20292;-81
2023/09/10 04:30:07;;;;;;;28.73;17.97;;;16.20;99.90;;;;;;4977963;28;20193;-81
2023/09/10 04:32:36;;;;;;;28.43;18.07;;;16.20;99.90;;;;;;4974496;28;20201;-75
2023/09/10 04:35:05;;;;;;;29.77;18.53;;;16.20;99.90;;;;;;4971292;28;20269;-75
2023/09/10 04:37:34;;;;;;;31.27;18.57;;;16.30;99.90;;;;;;4972897;28;20546;-75
2023/09/10 04:40:06;;;;;;;29.23;18.17;;;16.30;99.90;;;;;;4972882;28;20204;-75
2023/09/10 04:42:35;;;;;;;39.80;19.17;;;16.30;99.90;;;;;;4970782;28;20189;-75
2023/09/10 04:45:03;;;;;;;27.47;17.87;;;16.30;99.90;;;;;;4972766;28;20334;-76
2023/09/10 04:47:31;;;;;;;26.77;17.10;;;16.40;99.90;;;;;;4955819;28;20197;-76
2023/09/10 04:50:00;;;;;;;26.33;17.17;;;16.40;99.90;;;;;;4971486;28;20189;-76
2023/09/10 04:52:28;;;;;;;31.63;18.47;;;16.50;99.90;;;;;;4971472;28;20205;-76
2023/09/10 04:54:56;;;;;;;28.07;17.73;;;16.50;99.90;;;;;;4972423;28;20221;-76
2023/09/10 04:57:26;;;;;;;24.43;16.37;;;16.50;99.90;;;;;;4971593;28;20197;-79
2023/09/10 04:59:54;;;;;;;34.70;18.30;;;16.60;99.90;;;;;;4973123;28;20206;-79
2023/09/10 05:02:22;;;;;;;28.27;18.00;;;16.60;99.90;;;;;;4973916;28;20197;-80
2023/09/10 05:04:51;;;;;;;33.23;17.60;;;16.70;99.90;;;;;;4973458;28;20194;-80
2023/09/10 05:07:19;;;;;;;26.60;16.83;;;16.70;99.90;;;;;;4971440;28;20304;-80
2023/09/10 05:09:49;;;;;;;27.73;17.53;;;16.80;99.90;;;;;;4972502;28;20285;-80
2023/09/10 05:12:17;;;;;;;26.30;16.63;;;16.80;99.90;;;;;;4974498;28;20244;-80
2023/09/10 05:14:45;;;;;;;28.07;16.70;;;16.80;99.90;;;;;;4972621;28;20340;-79
2023/09/10 05:17:13;;;;;;;28.80;17.50;;;16.90;99.90;;;;;;4989668;28;20194;-80
2023/09/10 05:19:42;;;;;;;28.00;17.23;;;16.90;99.90;;;;;;4972418;28;20222;-80
2023/09/10 05:22:11;;;;;;;28.63;16.60;;;16.90;99.90;;;;;;4971542;28;20445;-80
2023/09/10 05:24:39;;;;;;;28.60;17.07;;;17.00;99.90;;;;;;4971981;28;20845;-76
2023/09/10 05:27:07;;;;;;;32.20;16.87;;;17.00;99.90;;;;;;4970884;28;20664;-76
2023/09/10 05:29:35;;;;;;;27.33;16.90;;;17.00;99.90;;;;;;4970455;28;20409;-76
2023/09/10 05:32:03;;;;;;;31.53;17.13;;;17.10;99.90;;;;;;4970872;28;20201;-76
2023/09/10 05:34:32;;;;;;;31.70;16.80;;;17.10;99.90;;;;;;4972302;28;20692;-81
2023/09/10 05:37:00;;;;;;;25.73;16.57;;;17.10;99.90;;;;;;4975314;28;20210;-81
2023/09/10 05:39:28;;;;;;;23.40;15.93;;;17.10;99.90;;;;;;4974379;28;20288;-76
2023/09/10 05:41:56;;;;;;;24.43;16.30;;;17.10;99.90;;;;;;4987981;28;20217;-80
2023/09/10 05:44:25;;;;;;;28.03;16.10;;;17.20;99.90;;;;;;4971760;28;20358;-81
2023/09/10 05:46:53;;;;;;;25.10;16.20;;;17.30;99.90;;;;;;4975395;28;20273;-81
2023/09/10 05:49:21;;;;;;;24.43;15.57;;;17.40;99.90;;;;;;4973633;28;20198;-81
2023/09/10 05:51:50;;;;;;;23.27;15.10;;;17.40;99.90;;;;;;4973457;28;20216;-76
2023/09/10 05:54:19;;;;;;;25.83;15.33;;;17.50;99.90;;;;;;4971036;28;20418;-76
2023/09/10 05:56:47;;;;;;;25.70;15.23;;;17.60;99.90;;;;;;4970993;28;20292;-76
2023/09/10 05:59:16;;;;;;;25.07;15.43;;;17.70;99.90;;;;;;4972027;28;20193;-77
2023/09/10 06:01:44;;;;;;;22.70;15.10;;;17.80;99.90;;;;;;4971475;28;20200;-77
2023/09/10 06:04:12;;;;;;;20.87;14.47;;;17.90;99.90;;;;;;4971482;28;20560;-76
2023/09/10 06:06:41;;;;;;;24.43;15.23;;;17.90;99.90;;;;;;4970466;28;20257;-76
2023/09/10 06:09:09;;;;;;;27.17;15.57;;;18.00;99.90;;;;;;4971314;28;20196;-76
2023/09/10 06:11:37;;;;;;;24.83;15.13;;;18.10;99.90;;;;;;4972790;28;20536;-75
2023/09/10 06:14:05;;;;;;;21.80;15.00;;;18.00;99.90;;;;;;4993108;28;20216;-81
2023/09/10 06:16:33;;;;;;;30.47;16.00;;;18.20;99.90;;;;;;4961774;28;20193;-76
2023/09/10 06:19:03;;;;;;;28.43;15.47;;;18.10;99.90;;;;;;4989489;28;20288;-76
2023/09/10 06:21:31;;;;;;;21.37;15.33;;;18.20;99.90;;;;;;4958258;28;20217;-81
2023/09/10 06:24:00;;;;;;;24.77;15.13;;;18.30;99.90;;;;;;4974986;28;20193;-81
2023/09/10 06:26:28;;;;;;;23.83;15.13;;;18.40;99.90;;;;;;4975374;28;20276;-81
2023/09/10 06:28:56;;;;;;;29.50;15.77;;;18.30;99.90;;;;;;4976495;28;20224;-81
2023/09/10 06:31:25;;;;;;;27.73;15.67;;;18.50;99.90;;;;;;4974546;28;20209;-83
2023/09/10 06:33:56;;;;;;;29.50;15.23;;;18.60;99.90;;;;;;4973830;28;20316;-82
2023/09/10 06:36:23;;;;;;;26.80;14.67;;;18.70;99.90;;;;;;4973636;28;20217;-81
2023/09/10 06:38:52;;;;;;;20.67;14.50;;;18.80;99.90;;;;;;4975555;28;20216;-83
2023/09/10 06:41:20;;;;;;;24.07;14.97;;;18.90;99.90;;;;;;4973567;28;20337;-83
2023/09/10 06:43:48;;;;;;;25.27;14.73;;;18.80;99.90;;;;;;4975181;28;20205;-82
2023/09/10 06:46:17;;;;;;;21.70;14.47;;;18.90;99.90;;;;;;4975494;28;20220;-82
2023/09/10 06:48:45;;;;;;;21.70;14.17;;;19.10;99.90;;;;;;4974422;28;20638;-82
2023/09/10 06:51:13;;;;;;;22.97;14.37;;;19.20;99.90;;;;;;4974046;28;20213;-82
2023/09/10 06:53:42;;;;;;;24.57;14.57;;;19.40;99.90;;;;;;4975016;28;20304;-82
2023/09/10 06:56:10;;;;;;;23.80;14.80;;;19.50;99.90;;;;;;4975582;28;20289;-81
2023/09/10 06:58:39;;;;;;;22.97;14.50;;;19.70;99.90;;;;;;4974413;28;20194;-80
2023/09/10 07:01:08;;;;;;;28.17;15.90;;;19.70;99.90;;;;;;4975483;28;20197;-81
2023/09/10 07:03:37;;;;;;;24.40;14.67;;;19.80;99.90;;;;;;4975185;28;20205;-80
2023/09/10 07:06:06;;;;;;;21.93;14.17;;;19.80;99.90;;;;;;4976478;28;20220;-81
2023/09/10 07:08:36;;;;;;;30.43;15.00;;;19.90;99.90;;;;;;4993010;28;20644;-81
2023/09/10 07:11:06;;;;;;;33.87;15.60;;;20.00;99.90;;;;;;4979385;28;20200;-81
2023/09/10 07:13:36;;;;;;;24.73;14.17;;;20.20;99.90;;;;;;4978613;28;20248;-82
2023/09/10 07:16:06;;;;;;;22.30;14.37;;;20.20;99.90;;;;;;4978356;28;20212;-81
2023/09/10 07:18:33;;;;;;;23.03;13.60;;;20.30;99.90;;;;;;4976909;28;20757;-81
2023/09/10 07:21:02;;;;;;;22.97;14.27;;;20.40;99.90;;;;;;4978254;28;20213;-81
2023/09/10 07:23:29;;;;;;;25.50;14.07;;;20.60;99.90;;;;;;4979290;28;20645;-81
2023/09/10 07:25:57;;;;;;;23.53;13.43;;;20.70;99.90;;;;;;4976034;28;20755;-82
2023/09/10 07:28:26;;;;;;;23.57;14.10;;;20.80;99.90;;;;;;4958041;28;20193;-82
2023/09/10 07:30:54;;;;;;;20.87;13.43;;;20.90;99.90;;;;;;4974461;28;20197;-81
2023/09/10 07:33:23;;;;;;;22.33;13.60;;;20.90;99.90;;;;;;4993304;28;20773;-81
2023/09/10 07:35:51;;;;;;;22.50;13.07;;;21.10;99.90;;;;;;4975270;28;20268;-81
2023/09/10 07:38:19;;;;;;;20.53;12.90;;;21.10;99.90;;;;;;4975680;28;20217;-82
2023/09/10 07:40:48;;;;;;;20.07;12.77;;;21.20;99.90;;;;;;4974561;28;20284;-81
2023/09/10 07:43:16;;;;;;;25.37;13.50;;;21.40;99.90;;;;;;4974126;28;20567;-82
2023/09/10 07:45:47;;;;;;;20.73;13.27;;;21.60;99.90;;;;;;4973045;28;20208;-81
2023/09/10 07:48:15;;;;;;;23.60;13.37;;;21.60;99.90;;;;;;4972721;28;20212;-81
2023/09/10 07:50:52;;;;;;;20.13;13.03;;;21.80;99.90;;;;;;4972494;28;20228;-80
2023/09/10 07:53:21;;;;;;;25.23;13.67;;;21.90;99.90;;;;;;4972524;28;20284;-77
2023/09/10 07:55:52;;;;;;;25.90;13.60;;;22.00;99.90;;;;;;4974263;28;20217;-81
2023/09/10 07:58:21;;;;;;;37.73;16.13;;;22.10;99.90;;;;;;4972375;28;20334;-82
2023/09/10 08:00:55;;;;;;;21.73;13.00;;;22.20;99.90;;;;;;4988548;28;20303;-82
2023/09/10 08:03:25;;;;;;;21.33;12.90;;;22.40;99.90;;;;;;4972441;28;20209;-82
2023/09/10 08:05:55;;;;;;;22.50;13.53;;;22.50;99.90;;;;;;4972066;28;20280;-82
2023/09/10 08:08:23;;;;;;;20.77;13.70;;;22.60;99.90;;;;;;4989347;28;20197;-82
2023/09/10 08:10:55;;;;;;;21.70;13.07;;;22.70;99.90;;;;;;4971978;28;20212;-81
2023/09/10 08:13:33;;;;;;;19.63;13.45;;;22.80;99.90;;;;;;4971989;28;20296;-82
2023/09/10 08:16:02;;;;;;;17.47;11.83;;;23.00;99.90;;;;;;4972229;28;20189;-82
2023/09/10 08:18:30;;;;;;;19.07;13.10;;;23.20;99.90;;;;;;4971449;28;20240;-82
2023/09/10 08:20:59;;;;;;;20.80;12.57;;;23.30;99.90;;;;;;4955803;28;20233;-81
2023/09/10 08:23:33;;;;;;;21.52;13.27;;;23.40;99.90;;;;;;4956286;28;20201;-81
2023/09/10 08:26:02;;;;;;;20.60;13.23;;;23.60;99.90;;;;;;4974079;28;20703;-82
2023/09/10 08:28:34;;;;;;;19.33;13.05;;;24.10;99.90;;;;;;4973163;28;20185;-82
2023/09/10 08:31:26;;;;;;;18.60;12.60;;;24.90;99.90;;;;;;4972543;28;20497;-84
2023/09/10 08:33:56;;;;;;;19.80;11.77;;;25.60;99.90;;;;;;4973212;28;20452;-84
2023/09/10 08:36:26;;;;;;;18.63;12.25;;;26.30;99.90;;;;;;4973074;28;20209;-83
2023/09/10 08:38:57;;;;;;;20.25;12.15;;;26.70;99.90;;;;;;4971719;28;20613;-83
2023/09/10 08:42:03;;;;;;;;;;;;;;;;;;;;;
2023/09/10 08:44:35;;;;;;;15.65;10.90;;;27.40;99.90;;;;;;4951087;28;20297;-82
2023/09/10 08:47:06;;;;;;;19.98;11.55;;;27.80;99.90;;;;;;4935030;29;20725;-83
2023/09/10 08:49:42;;;;;;;17.83;10.98;;;27.90;99.90;;;;;;4951188;28;20249;-82
2023/09/10 08:52:17;;;;;;;19.27;11.32;;;28.20;99.90;;;;;;4935790;29;20229;-85
2023/09/10 08:55:02;;;;;;;16.63;10.73;;;28.20;99.90;;;;;;4950468;28;20226;-83
2023/09/10 08:58:09;;;;;;;13.23;10.02;;;28.20;99.90;;;;;;4951114;28;20661;-86
2023/09/10 09:00:44;;;;;;;15.32;9.80;;;28.50;99.90;;;;;;4950794;28;20194;-82
2023/09/10 09:03:26;;;;;;;13.88;9.80;;;28.70;99.90;;;;;;4949882;29;20198;-85
2023/09/10 09:06:01;;;;;;;14.63;9.48;;;29.00;99.90;;;;;;4934920;29;20270;-83
2023/09/10 09:08:48;;;;;;;12.82;9.55;;;29.30;99.90;;;;;;4951175;28;20203;-82
2023/09/10 09:11:18;;;;;;;18.25;10.43;;;29.50;99.90;;;;;;4950997;28;20194;-83
2023/09/10 09:13:59;;;;;;;15.70;9.68;;;29.40;99.90;;;;;;4951033;29;20182;-83
2023/09/10 09:16:30;;;;;;;14.40;9.55;;;29.60;99.90;;;;;;4950544;28;20292;-84
2023/09/10 09:19:30;;;;;;;16.48;9.80;;;29.50;99.90;;;;;;4928351;29;20237;-83
2023/09/10 09:22:03;;;;;;;15.20;9.27;;;29.90;99.90;;;;;;4965853;28;20248;-82
2023/09/10 09:24:33;;;;;;;13.43;9.43;;;30.00;99.90;;;;;;4971084;28;20752;-78
2023/09/10 09:27:05;;;;;;;13.40;9.05;;;30.30;99.90;;;;;;4971857;28;20290;-76
2023/09/10 09:29:36;;;;;;;15.65;9.90;;;30.50;99.90;;;;;;4971744;28;20222;-83
2023/09/10 09:32:07;;;;;;;16.63;9.38;;;30.70;99.90;;;;;;4973926;28;20244;-84
2023/09/10 09:34:37;;;;;;;14.98;9.60;;;30.90;99.90;;;;;;4987440;28;20228;-82
2023/09/10 09:37:05;;;;;;;14.18;8.75;;;30.80;99.90;;;;;;4971303;28;20205;-81
2023/09/10 09:39:34;;;;;;;12.80;8.68;;;30.90;99.90;;;;;;4971111;28;20288;-84
2023/09/10 09:42:05;;;;;;;11.90;8.80;;;31.20;99.90;;;;;;4970703;28;20276;-83
2023/09/10 09:44:33;;;;;;;12.00;8.77;;;31.50;99.90;;;;;;4971093;28;20256;-83
2023/09/10 09:47:11;;;;;;;13.07;8.73;;;31.40;99.90;;;;;;4974470;28;20205;-83
2023/09/10 09:49:46;;;;;;;9.80;8.20;;;31.50;99.90;;;;;;4990396;28;20224;-83
2023/09/10 09:52:21;;;;;;;18.33;9.38;;;31.40;99.90;;;;;;4973555;28;20213;-84
2023/09/10 09:54:49;;;;;;;18.95;8.63;;;31.60;99.90;;;;;;4976433;28;20217;-84
2023/09/10 09:57:42;;;;;;;12.25;8.05;;;31.70;99.90;;;;;;4974396;28;20281;-81
2023/09/10 10:00:17;;;;;;;15.02;8.40;;;32.20;99.90;;;;;;4973524;28;20208;-77
2023/09/10 10:02:47;;;;;;;15.77;8.20;;;31.80;99.90;;;;;;4974539;28;20271;-78
2023/09/10 10:05:19;;;;;;;13.27;8.38;;;32.30;99.90;;;;;;4974495;28;20190;-76
2023/09/10 10:08:10;;;;;;;24.20;9.50;;;32.30;99.90;;;;;;4973901;28;20205;-77
2023/09/10 10:11:04;;;;;;;13.40;8.20;;;32.40;99.90;;;;;;4973590;28;20209;-78
2023/09/10 10:13:34;;;;;;;12.00;7.32;;;32.90;99.90;;;;;;4974154;28;20292;-83
2023/09/10 10:16:02;;;;;;;10.48;7.40;;;33.30;99.90;;;;;;4975733;28;20221;-76
2023/09/10 10:18:33;;;;;;;14.88;7.32;;;33.10;98.10;;;;;;4973242;28;20626;-78
2023/09/10 10:21:04;;;;;;;17.40;7.55;;;33.20;97.90;;;;;;4973980;28;20641;-78
2023/09/10 10:23:32;;;;;;;9.98;7.20;;;33.10;97.40;;;;;;4973544;28;20232;-77
2023/09/10 10:26:05;;;;;;;11.55;7.38;;;33.20;96.70;;;;;;4974272;28;20267;-83
2023/09/10 10:28:37;;;;;;;14.77;7.70;;;33.30;96.80;;;;;;4973339;28;20292;-83
2023/09/10 10:31:16;;;;;;;12.13;7.55;;;33.50;96.10;;;;;;4974320;28;20201;-83
2023/09/10 10:34:05;;;;;;;11.40;7.28;;;33.60;95.30;;;;;;4975001;28;20186;-83
2023/09/10 10:36:42;;;;;;;14.23;8.00;;;33.50;95.30;;;;;;4973673;28;20365;-83
2023/09/10 10:39:22;;;;;;;11.95;7.13;;;33.30;95.00;;;;;;4974456;28;20704;-83
2023/09/10 10:41:58;;;;;;;11.05;7.38;;;33.30;94.80;;;;;;4973700;28;20202;-78
2023/09/10 10:44:37;;;;;;;11.30;7.75;;;33.60;93.80;;;;;;4974490;28;20218;-78
2023/09/10 10:47:17;;;;;;;12.60;7.30;;;33.90;93.40;;;;;;4974049;28;20205;-83
2023/09/10 10:49:55;;;;;;;12.70;6.90;;;34.00;92.80;;;;;;4973045;28;20202;-84
2023/09/10 10:52:44;;;;;;;11.05;6.90;;;34.20;92.20;;;;;;4959636;28;20708;-78
2023/09/10 10:55:21;;;;;;;8.82;6.78;;;34.10;91.20;;;;;;4988963;28;20225;-84
2023/09/10 10:57:59;;;;;;;9.52;6.65;;;33.20;92.00;;;;;;4971895;28;20208;-85
2023/09/10 11:00:42;;;;;;;9.95;7.20;;;33.60;91.90;;;;;;4973387;28;20197;-85
2023/09/10 11:03:28;;;;;;;;;;;;;;;;;;;;;
2023/09/10 11:06:15;;;;;;;;;;;;;;;;;;;;;
2023/09/10 11:08:51;;;;;;;13.07;6.47;;;34.70;90.50;;;;;;4917396;29;20258;-85
2023/09/10 11:12:17;;;;;;;11.48;6.60;;;34.90;87.70;;;;;;4932467;29;20211;-85
2023/09/10 11:15:36;;;;;;;9.77;6.43;;;35.10;87.20;;;;;;4934195;29;20255;-85
2023/09/10 11:18:37;;;;;;;9.93;6.63;;;35.40;87.00;;;;;;4932143;29;20235;-86
2023/09/10 11:22:04;;;;;;;;;;;;;;;;;;;;;
2023/09/10 11:25:00;;;;;;;13.68;6.97;;;35.60;84.20;;;;;;4933186;29;20239;-85
2023/09/10 11:27:48;;;;;;;9.70;6.25;;;35.70;81.10;;;;;;4933267;29;20526;-85
2023/09/10 11:31:07;;;;;;;;;;;;;;;;;;;;;
2023/09/10 11:33:59;;;;;;;10.65;6.45;;;36.60;79.30;;;;;;4874595;29;20205;-88
2023/09/10 11:37:15;;;;;;;;;;;;;;;;;;;;;
2023/09/10 11:40:17;;;;;;;10.68;6.50;;;37.20;77.10;;;;;;4915840;29;20342;-79
2023/09/10 11:43:19;;;;;;;11.57;6.68;;;37.10;76.30;;;;;;4915936;29;20195;-79
2023/09/10 11:46:51;;;;;;;;;;;;;;;;;;;;;
2023/09/10 11:53:34;;;;;;;11.73;7.22;;;37.70;74.50;;;;;;4749037;30;20213;-85
2023/09/10 11:56:41;;;;;;;;;;;;;;;;;;;;;
2023/09/10 11:59:59;;;;;;;12.73;6.57;;;38.40;71.60;;;;;;4730719;30;20667;-85
2023/09/10 12:03:21;;;;;;;13.10;6.13;;;38.30;70.30;;;;;;4731362;30;20198;-85
2023/09/10 12:09:39;;;;;;;10.15;6.43;;;38.80;68.20;;;;;;4734478;30;20228;-87
2023/09/10 12:12:15;;;;;;;17.08;6.45;;;39.10;67.10;;;;;;4733396;30;20614;-84
2023/09/10 12:15:03;;;;;;;11.45;6.15;;;38.80;66.70;;;;;;4734135;30;20227;-89
2023/09/10 12:17:33;;;;;;;9.48;5.70;;;38.90;66.80;;;;;;4698279;30;20203;-84
2023/09/10 12:20:48;;;;;;;;;;;;;;;;;;;;;
2023/09/10 12:23:32;;;;;;;11.20;5.95;;;38.90;65.70;;;;;;4979751;27;4182048;-86
2023/09/10 12:26:13;;;;;;;10.20;5.90;;;39.00;66.00;;;;;;5106436;28;20204;-88
2023/09/10 12:28:58;;;;;;;9.82;6.00;;;39.20;65.70;;;;;;5106892;28;20181;-88
2023/09/10 12:32:03;;;;;;;9.38;6.47;;;39.60;63.90;;;;;;5097330;28;20209;-88
2023/09/10 12:35:59;;;;;;;8.52;5.70;;;39.10;64.00;;;;;;5095547;28;20296;-87
2023/09/10 12:39:02;;;;;;;;;;;;;;;;;;;;;
2023/09/10 12:42:01;;;;;;;11.65;5.93;;;38.40;64.20;;;;;;4968515;28;20345;-86
2023/09/10 12:45:15;;;;;;;10.90;6.15;;;38.60;64.30;;;;;;4965015;28;20205;-84
2023/09/10 12:47:54;;;;;;;9.07;6.00;;;38.10;65.20;;;;;;4985983;28;20598;-84
2023/09/10 12:57:32;;;;;;;13.07;6.30;;;36.80;67.20;;;;;;4922917;29;20202;-80
2023/09/10 13:07:16;;;;;;;;;;;;;;;;;;;;;
2023/09/10 13:12:48;;;;;;;17.10;7.68;;;33.80;74.50;;;;;;5217054;23;20235;-84
2023/09/10 13:15:18;;;;;;;18.15;7.85;;;33.40;75.90;;;;;;4927968;29;20733;-85
2023/09/10 13:17:50;;;;;;;19.05;8.52;;;32.90;78.10;;;;;;4930438;29;20191;-78
2023/09/10 13:20:19;;;;;;;11.38;7.15;;;32.50;79.00;;;;;;4926238;29;20229;-77
2023/09/10 13:22:48;;;;;;;15.00;7.85;;;32.30;82.70;;;;;;4930142;29;20324;-78
2023/09/10 13:25:20;;;;;;;13.25;7.28;;;31.90;83.60;;;;;;4945966;28;20251;-84
2023/09/10 13:27:48;;;;;;;18.77;7.85;;;31.70;85.20;;;;;;4929924;29;20270;-84
2023/09/10 13:30:18;;;;;;;11.77;7.10;;;31.40;85.50;;;;;;4913723;29;20230;-81
2023/09/10 13:32:52;;;;;;;13.18;7.35;;;31.20;85.70;;;;;;4926238;29;20342;-77
2023/09/10 13:35:32;;;;;;;14.40;7.75;;;31.00;85.30;;;;;;4916410;29;20227;-80
2023/09/10 13:38:09;;;;;;;13.95;8.27;;;30.80;84.90;;;;;;4916088;29;20199;-78
2023/09/10 13:40:43;;;;;;;23.40;8.57;;;30.50;87.90;;;;;;4916655;29;20195;-79
2023/09/10 13:43:14;;;;;;;11.95;8.23;;;30.40;88.00;;;;;;4916424;29;20678;-80